sensor_id;sensor_type;location;lat;lon;timestamp;pressure;altitude;pressure_sealevel;temperature;humidity
18858;BME280;9558;50.178;8.370;2023-03-12T00:01:23;97873.28;;;-2.20;94.37
18858;BME280;9558;50.178;8.370;2023-03-12T00:03:51;97859.78;;;-2.20;94.33
18858;BME280;9558;50.178;8.370;2023-03-12T00:06:19;97867.38;;;-2.20;94.91
18858;BME280;9558;50.178;8.370;2023-03-12T00:08:47;97867.47;;;-2.22;94.54
18858;BME280;9558;50.178;8.370;2023-03-12T00:11:15;97874.06;;;-2.19;95.22
18858;BME280;9558;50.178;8.370;2023-03-12T00:13:42;97869.91;;;-2.20;95.28
18858;BME280;9558;50.178;8.370;2023-03-12T00:16:10;97872.44;;;-2.20;96.48
18858;BME280;9558;50.178;8.370;2023-03-12T00:18:39;97869.69;;;-2.17;94.95
18858;BME280;9558;50.178;8.370;2023-03-12T00:21:07;97870.31;;;-2.14;94.85
18858;BME280;9558;50.178;8.370;2023-03-12T00:23:33;97872.75;;;-2.12;95.11
18858;BME280;9558;50.178;8.370;2023-03-12T00:26:01;97878.44;;;-2.09;95.00
18858;BME280;9558;50.178;8.370;2023-03-12T00:28:28;97879.03;;;-2.05;95.80
18858;BME280;9558;50.178;8.370;2023-03-12T00:30:54;97874.75;;;-2.04;96.70
18858;BME280;9558;50.178;8.370;2023-03-12T00:33:23;97882.09;;;-2.00;95.74
18858;BME280;9558;50.178;8.370;2023-03-12T00:35:51;97871.72;;;-1.97;95.65
18858;BME280;9558;50.178;8.370;2023-03-12T00:38:18;97871.41;;;-1.92;95.73
18858;BME280;9558;50.178;8.370;2023-03-12T00:40:44;97875.38;;;-1.88;96.20
18858;BME280;9558;50.178;8.370;2023-03-12T00:43:11;97864.00;;;-1.82;96.12
18858;BME280;9558;50.178;8.370;2023-03-12T00:45:37;97862.88;;;-1.78;95.68
18858;BME280;9558;50.178;8.370;2023-03-12T00:48:04;97853.22;;;-1.73;96.08
18858;BME280;9558;50.178;8.370;2023-03-12T00:50:31;97869.84;;;-1.69;95.88
18858;BME280;9558;50.178;8.370;2023-03-12T00:52:59;97865.59;;;-1.68;95.94
18858;BME280;9558;50.178;8.370;2023-03-12T00:55:25;97864.75;;;-1.69;95.66
18858;BME280;9558;50.178;8.370;2023-03-12T00:57:52;97862.94;;;-1.67;97.46
18858;BME280;9558;50.178;8.370;2023-03-12T01:00:19;97866.78;;;-1.61;96.25
18858;BME280;9558;50.178;8.370;2023-03-12T01:02:46;97859.66;;;-1.56;96.17
18858;BME280;9558;50.178;8.370;2023-03-12T01:05:12;97863.72;;;-1.53;95.78
18858;BME280;9558;50.178;8.370;2023-03-12T01:07:39;97858.44;;;-1.50;95.78
18858;BME280;9558;50.178;8.370;2023-03-12T01:10:10;97864.91;;;-1.46;96.27
18858;BME280;9558;50.178;8.370;2023-03-12T01:12:37;97867.44;;;-1.46;96.88
18858;BME280;9558;50.178;8.370;2023-03-12T01:15:04;97864.81;;;-1.45;96.38
18858;BME280;9558;50.178;8.370;2023-03-12T01:17:31;97867.94;;;-1.41;95.38
18858;BME280;9558;50.178;8.370;2023-03-12T01:19:57;97862.66;;;-1.38;95.90
18858;BME280;9558;50.178;8.370;2023-03-12T01:22:24;97865.78;;;-1.34;96.09
18858;BME280;9558;50.178;8.370;2023-03-12T01:24:50;97859.69;;;-1.32;95.57
18858;BME280;9558;50.178;8.370;2023-03-12T01:27:18;97864.41;;;-1.27;95.48
18858;BME280;9558;50.178;8.370;2023-03-12T01:29:45;97865.03;;;-1.24;96.18
18858;BME280;9558;50.178;8.370;2023-03-12T01:32:12;97858.09;;;-1.22;95.92
18858;BME280;9558;50.178;8.370;2023-03-12T01:34:38;97855.47;;;-1.20;96.09
18858;BME280;9558;50.178;8.370;2023-03-12T01:37:05;97861.25;;;-1.18;95.76
18858;BME280;9558;50.178;8.370;2023-03-12T01:39:32;97856.06;;;-1.16;95.57
18858;BME280;9558;50.178;8.370;2023-03-12T01:41:58;97850.75;;;-1.13;96.05
18858;BME280;9558;50.178;8.370;2023-03-12T01:44:27;97851.00;;;-1.16;95.86
18858;BME280;9558;50.178;8.370;2023-03-12T01:46:54;97843.25;;;-1.15;95.46
18858;BME280;9558;50.178;8.370;2023-03-12T01:49:23;97842.47;;;-1.15;96.16
18858;BME280;9558;50.178;8.370;2023-03-12T01:51:54;97839.00;;;-1.14;95.73
18858;BME280;9558;50.178;8.370;2023-03-12T01:54:26;97831.28;;;-1.13;95.81
18858;BME280;9558;50.178;8.370;2023-03-12T01:56:55;97829.66;;;-1.14;96.33
18858;BME280;9558;50.178;8.370;2023-03-12T01:59:24;97836.25;;;-1.11;95.83
18858;BME280;9558;50.178;8.370;2023-03-12T02:01:55;97835.31;;;-1.10;95.80
18858;BME280;9558;50.178;8.370;2023-03-12T02:04:24;97834.28;;;-1.08;95.75
18858;BME280;9558;50.178;8.370;2023-03-12T02:06:57;97827.56;;;-1.09;95.72
18858;BME280;9558;50.178;8.370;2023-03-12T02:09:26;97834.28;;;-1.08;95.79
18858;BME280;9558;50.178;8.370;2023-03-12T02:11:52;97828.41;;;-1.08;96.16
18858;BME280;9558;50.178;8.370;2023-03-12T02:14:19;97831.63;;;-1.06;95.60
18858;BME280;9558;50.178;8.370;2023-03-12T02:16:46;97821.16;;;-1.01;95.48
18858;BME280;9558;50.178;8.370;2023-03-12T02:19:18;97823.09;;;-1.05;95.54
18858;BME280;9558;50.178;8.370;2023-03-12T02:21:46;97814.56;;;-1.04;96.15
18858;BME280;9558;50.178;8.370;2023-03-12T02:24:19;97819.66;;;-1.04;96.17
18858;BME280;9558;50.178;8.370;2023-03-12T02:26:49;97828.06;;;-1.03;96.23
18858;BME280;9558;50.178;8.370;2023-03-12T02:29:16;97820.34;;;-1.02;96.45
18858;BME280;9558;50.178;8.370;2023-03-12T02:31:44;97827.94;;;-1.02;96.73
18858;BME280;9558;50.178;8.370;2023-03-12T02:34:13;97829.59;;;-1.01;96.23
18858;BME280;9558;50.178;8.370;2023-03-12T02:36:40;97825.91;;;-0.97;96.49
18858;BME280;9558;50.178;8.370;2023-03-12T02:39:06;97826.38;;;-0.92;96.52
18858;BME280;9558;50.178;8.370;2023-03-12T02:41:35;97824.75;;;-0.93;97.68
18858;BME280;9558;50.178;8.370;2023-03-12T02:44:07;97809.53;;;-0.93;96.92
18858;BME280;9558;50.178;8.370;2023-03-12T02:46:39;97801.91;;;-0.93;97.11
18858;BME280;9558;50.178;8.370;2023-03-12T02:49:06;97801.91;;;-0.93;97.26
18858;BME280;9558;50.178;8.370;2023-03-12T02:51:33;97806.16;;;-0.93;97.40
18858;BME280;9558;50.178;8.370;2023-03-12T02:53:59;97801.19;;;-0.95;98.00
18858;BME280;9558;50.178;8.370;2023-03-12T02:56:27;97793.56;;;-0.95;97.15
18858;BME280;9558;50.178;8.370;2023-03-12T02:58:54;97798.88;;;-0.98;98.42
18858;BME280;9558;50.178;8.370;2023-03-12T03:01:22;97787.81;;;-0.97;97.29
18858;BME280;9558;50.178;8.370;2023-03-12T03:03:49;97792.16;;;-0.99;97.36
18858;BME280;9558;50.178;8.370;2023-03-12T03:06:16;97793.13;;;-1.00;97.18
18858;BME280;9558;50.178;8.370;2023-03-12T03:08:43;97794.03;;;-1.01;97.37
18858;BME280;9558;50.178;8.370;2023-03-12T03:11:10;97792.28;;;-1.00;97.23
18858;BME280;9558;50.178;8.370;2023-03-12T03:13:36;97786.28;;;-0.99;97.91
18858;BME280;9558;50.178;8.370;2023-03-12T03:16:04;97787.69;;;-0.95;97.53
18858;BME280;9558;50.178;8.370;2023-03-12T03:18:32;97788.94;;;-1.01;97.54
18858;BME280;9558;50.178;8.370;2023-03-12T03:21:00;97786.28;;;-0.99;97.56
18858;BME280;9558;50.178;8.370;2023-03-12T03:23:27;97788.16;;;-1.01;98.36
18858;BME280;9558;50.178;8.370;2023-03-12T03:25:54;97785.50;;;-1.00;97.81
18858;BME280;9558;50.178;8.370;2023-03-12T03:28:21;97784.56;;;-0.99;97.90
18858;BME280;9558;50.178;8.370;2023-03-12T03:30:51;97783.88;;;-1.01;97.77
18858;BME280;9558;50.178;8.370;2023-03-12T03:33:17;97785.38;;;-0.98;97.84
18858;BME280;9558;50.178;8.370;2023-03-12T03:35:46;97786.19;;;-0.98;98.17
18858;BME280;9558;50.178;8.370;2023-03-12T03:38:13;97780.19;;;-0.97;98.18
18858;BME280;9558;50.178;8.370;2023-03-12T03:40:39;97777.53;;;-0.95;98.55
18858;BME280;9558;50.178;8.370;2023-03-12T03:43:06;97788.25;;;-0.92;98.41
18858;BME280;9558;50.178;8.370;2023-03-12T03:45:32;97778.69;;;-0.88;98.72
18858;BME280;9558;50.178;8.370;2023-03-12T03:47:59;97773.38;;;-0.85;98.35
18858;BME280;9558;50.178;8.370;2023-03-12T03:50:25;97772.38;;;-0.82;98.55
18858;BME280;9558;50.178;8.370;2023-03-12T03:52:53;97765.19;;;-0.77;98.44
18858;BME280;9558;50.178;8.370;2023-03-12T03:55:20;97775.16;;;-0.74;98.39
18858;BME280;9558;50.178;8.370;2023-03-12T03:57:46;97776.88;;;-0.75;98.60
18858;BME280;9558;50.178;8.370;2023-03-12T04:00:14;97786.13;;;-0.74;98.25
18858;BME280;9558;50.178;8.370;2023-03-12T04:02:42;97786.69;;;-0.70;98.41
18858;BME280;9558;50.178;8.370;2023-03-12T04:05:09;97784.63;;;-0.65;98.36
18858;BME280;9558;50.178;8.370;2023-03-12T04:07:36;97777.22;;;-0.68;98.02
18858;BME280;9558;50.178;8.370;2023-03-12T04:10:04;97779.31;;;-0.62;98.18
18858;BME280;9558;50.178;8.370;2023-03-12T04:12:31;97779.44;;;-0.63;98.98
18858;BME280;9558;50.178;8.370;2023-03-12T04:14:57;97787.19;;;-0.54;98.15
18858;BME280;9558;50.178;8.370;2023-03-12T04:17:24;97783.97;;;-0.56;98.16
18858;BME280;9558;50.178;8.370;2023-03-12T04:19:50;97783.50;;;-0.49;97.95
18858;BME280;9558;50.178;8.370;2023-03-12T04:22:17;97787.84;;;-0.52;97.86
18858;BME280;9558;50.178;8.370;2023-03-12T04:24:43;97783.72;;;-0.53;99.05
18858;BME280;9558;50.178;8.370;2023-03-12T04:27:11;97778.16;;;-0.46;98.01
18858;BME280;9558;50.178;8.370;2023-03-12T04:29:38;97786.50;;;-0.44;97.71
18858;BME280;9558;50.178;8.370;2023-03-12T04:32:06;97797.25;;;-0.41;97.85
18858;BME280;9558;50.178;8.370;2023-03-12T04:34:33;97795.19;;;-0.36;97.34
18858;BME280;9558;50.178;8.370;2023-03-12T04:37:00;97793.91;;;-0.30;96.99
18858;BME280;9558;50.178;8.370;2023-03-12T04:39:27;97792.28;;;-0.31;96.47
18858;BME280;9558;50.178;8.370;2023-03-12T04:41:54;97781.88;;;-0.28;96.46
18858;BME280;9558;50.178;8.370;2023-03-12T04:44:21;97786.97;;;-0.28;96.74
18858;BME280;9558;50.178;8.370;2023-03-12T04:46:48;97784.66;;;-0.20;96.76
18858;BME280;9558;50.178;8.370;2023-03-12T04:49:14;97779.22;;;-0.15;96.88
18858;BME280;9558;50.178;8.370;2023-03-12T04:51:41;97783.69;;;-0.07;96.68
18858;BME280;9558;50.178;8.370;2023-03-12T04:54:07;97780.00;;;-0.03;96.92
18858;BME280;9558;50.178;8.370;2023-03-12T04:56:34;97775.72;;;-0.03;96.92
18858;BME280;9558;50.178;8.370;2023-03-12T04:59:00;97773.63;;;0.03;96.57
18858;BME280;9558;50.178;8.370;2023-03-12T05:01:30;97764.59;;;0.10;95.52
18858;BME280;9558;50.178;8.370;2023-03-12T05:03:57;97759.63;;;0.08;95.38
18858;BME280;9558;50.178;8.370;2023-03-12T05:06:24;97762.16;;;0.08;95.20
18858;BME280;9558;50.178;8.370;2023-03-12T05:08:50;97757.66;;;0.12;95.43
18858;BME280;9558;50.178;8.370;2023-03-12T05:11:18;97754.22;;;0.13;95.36
18858;BME280;9558;50.178;8.370;2023-03-12T05:13:45;97757.78;;;0.10;94.84
18858;BME280;9558;50.178;8.370;2023-03-12T05:16:12;97755.38;;;0.09;95.25
18858;BME280;9558;50.178;8.370;2023-03-12T05:18:39;97746.44;;;0.14;95.88
18858;BME280;9558;50.178;8.370;2023-03-12T05:21:07;97746.22;;;0.17;95.99
18858;BME280;9558;50.178;8.370;2023-03-12T05:23:34;97746.22;;;0.17;95.79
18858;BME280;9558;50.178;8.370;2023-03-12T05:26:03;97742.03;;;0.16;96.24
18858;BME280;9558;50.178;8.370;2023-03-12T05:28:30;97741.13;;;0.17;95.69
18858;BME280;9558;50.178;8.370;2023-03-12T05:30:57;97747.00;;;0.18;95.88
18858;BME280;9558;50.178;8.370;2023-03-12T05:33:24;97752.88;;;0.19;95.85
18858;BME280;9558;50.178;8.370;2023-03-12T05:35:52;97755.22;;;0.22;95.60
18858;BME280;9558;50.178;8.370;2023-03-12T05:38:19;97752.44;;;0.25;95.25
18858;BME280;9558;50.178;8.370;2023-03-12T05:40:50;97755.91;;;0.24;94.72
18858;BME280;9558;50.178;8.370;2023-03-12T05:43:17;97748.97;;;0.26;94.73
18858;BME280;9558;50.178;8.370;2023-03-12T05:45:44;97746.50;;;0.24;94.70
18858;BME280;9558;50.178;8.370;2023-03-12T05:48:10;97748.00;;;0.27;94.59
18858;BME280;9558;50.178;8.370;2023-03-12T05:50:37;97750.31;;;0.30;94.90
18858;BME280;9558;50.178;8.370;2023-03-12T05:53:04;97738.28;;;0.32;94.74
18858;BME280;9558;50.178;8.370;2023-03-12T05:55:32;97736.53;;;0.32;94.61
18858;BME280;9558;50.178;8.370;2023-03-12T05:57:59;97730.16;;;0.38;94.45
18858;BME280;9558;50.178;8.370;2023-03-12T06:00:26;97726.00;;;0.37;94.37
18858;BME280;9558;50.178;8.370;2023-03-12T06:02:52;97726.94;;;0.36;94.19
18858;BME280;9558;50.178;8.370;2023-03-12T06:05:18;97734.59;;;0.36;93.87
18858;BME280;9558;50.178;8.370;2023-03-12T06:07:45;97731.09;;;0.37;93.36
18858;BME280;9558;50.178;8.370;2023-03-12T06:10:13;97743.13;;;0.35;91.67
18858;BME280;9558;50.178;8.370;2023-03-12T06:12:39;97735.97;;;0.40;92.19
18858;BME280;9558;50.178;8.370;2023-03-12T06:15:06;97745.19;;;0.41;91.74
18858;BME280;9558;50.178;8.370;2023-03-12T06:17:33;97747.50;;;0.44;91.30
18858;BME280;9558;50.178;8.370;2023-03-12T06:20:00;97749.56;;;0.50;91.04
18858;BME280;9558;50.178;8.370;2023-03-12T06:22:26;97743.31;;;0.55;90.35
18858;BME280;9558;50.178;8.370;2023-03-12T06:24:53;97750.94;;;0.55;88.83
18858;BME280;9558;50.178;8.370;2023-03-12T06:27:20;97754.03;;;0.58;89.11
18858;BME280;9558;50.178;8.370;2023-03-12T06:29:47;97746.03;;;0.63;88.18
18858;BME280;9558;50.178;8.370;2023-03-12T06:32:14;97746.03;;;0.63;87.37
18858;BME280;9558;50.178;8.370;2023-03-12T06:34:40;97741.06;;;0.61;87.64
18858;BME280;9558;50.178;8.370;2023-03-12T06:37:07;97744.19;;;0.65;87.18
18858;BME280;9558;50.178;8.370;2023-03-12T06:39:33;97737.47;;;0.64;87.25
18858;BME280;9558;50.178;8.370;2023-03-12T06:42:00;97734.78;;;0.65;87.76
18858;BME280;9558;50.178;8.370;2023-03-12T06:44:28;97734.53;;;0.68;88.17
18858;BME280;9558;50.178;8.370;2023-03-12T06:46:54;97742.09;;;0.70;88.73
18858;BME280;9558;50.178;8.370;2023-03-12T06:49:21;97740.75;;;0.76;88.77
18858;BME280;9558;50.178;8.370;2023-03-12T06:51:47;97742.97;;;0.80;88.82
18858;BME280;9558;50.178;8.370;2023-03-12T06:54:14;97745.25;;;0.83;89.20
18858;BME280;9558;50.178;8.370;2023-03-12T06:56:41;97736.56;;;0.86;89.26
18858;BME280;9558;50.178;8.370;2023-03-12T06:59:07;97736.84;;;0.93;89.16
18858;BME280;9558;50.178;8.370;2023-03-12T07:01:35;97741.72;;;0.96;89.00
18858;BME280;9558;50.178;8.370;2023-03-12T07:04:02;97745.19;;;0.95;89.35
18858;BME280;9558;50.178;8.370;2023-03-12T07:06:28;97748.41;;;0.97;88.41
18858;BME280;9558;50.178;8.370;2023-03-12T07:08:55;97740.91;;;0.95;87.68
18858;BME280;9558;50.178;8.370;2023-03-12T07:11:21;97741.94;;;0.93;88.01
18858;BME280;9558;50.178;8.370;2023-03-12T07:13:48;97743.44;;;0.95;88.23
18858;BME280;9558;50.178;8.370;2023-03-12T07:16:15;97746.00;;;0.95;88.80
18858;BME280;9558;50.178;8.370;2023-03-12T07:18:43;97741.94;;;0.93;89.19
18858;BME280;9558;50.178;8.370;2023-03-12T07:21:09;97745.19;;;0.95;90.41
18858;BME280;9558;50.178;8.370;2023-03-12T07:23:36;97752.13;;;0.93;91.40
18858;BME280;9558;50.178;8.370;2023-03-12T07:26:03;97752.13;;;0.93;91.66
18858;BME280;9558;50.178;8.370;2023-03-12T07:28:30;97745.66;;;0.89;93.15
18858;BME280;9558;50.178;8.370;2023-03-12T07:31:00;97744.44;;;0.83;94.37
18858;BME280;9558;50.178;8.370;2023-03-12T07:33:27;97741.59;;;0.76;95.42
18858;BME280;9558;50.178;8.370;2023-03-12T07:35:54;97735.66;;;0.76;95.50
18858;BME280;9558;50.178;8.370;2023-03-12T07:38:21;97736.50;;;0.76;95.81
18858;BME280;9558;50.178;8.370;2023-03-12T07:40:49;97731.16;;;0.79;96.54
18858;BME280;9558;50.178;8.370;2023-03-12T07:43:16;97732.06;;;0.78;96.66
18858;BME280;9558;50.178;8.370;2023-03-12T07:45:43;97727.69;;;0.80;96.92
18858;BME280;9558;50.178;8.370;2023-03-12T07:48:09;97722.00;;;0.77;97.24
18858;BME280;9558;50.178;8.370;2023-03-12T07:50:37;97725.47;;;0.76;97.91
18858;BME280;9558;50.178;8.370;2023-03-12T07:53:05;97735.56;;;0.77;97.87
18858;BME280;9558;50.178;8.370;2023-03-12T07:55:32;97741.59;;;0.76;98.09
18858;BME280;9558;50.178;8.370;2023-03-12T07:57:59;97738.34;;;0.74;99.32
18858;BME280;9558;50.178;8.370;2023-03-12T08:00:26;97742.63;;;0.74;99.22
18858;BME280;9558;50.178;8.370;2023-03-12T08:02:53;97738.59;;;0.71;99.82
18858;BME280;9558;50.178;8.370;2023-03-12T08:05:20;97737.00;;;0.70;99.95
18858;BME280;9558;50.178;8.370;2023-03-12T08:07:49;97734.88;;;0.75;99.81
18858;BME280;9558;50.178;8.370;2023-03-12T08:10:18;97736.50;;;0.76;100.00
18858;BME280;9558;50.178;8.370;2023-03-12T08:12:45;97742.97;;;0.80;100.00
18858;BME280;9558;50.178;8.370;2023-03-12T08:15:11;97745.63;;;0.79;100.00
18858;BME280;9558;50.178;8.370;2023-03-12T08:17:38;97746.19;;;0.82;100.00
18858;BME280;9558;50.178;8.370;2023-03-12T08:20:06;97747.22;;;0.80;100.00
18858;BME280;9558;50.178;8.370;2023-03-12T08:22:34;97745.66;;;0.89;100.00
18858;BME280;9558;50.178;8.370;2023-03-12T08:25:01;97749.84;;;0.90;100.00
18858;BME280;9558;50.178;8.370;2023-03-12T08:27:29;97755.75;;;0.90;100.00
18858;BME280;9558;50.178;8.370;2023-03-12T08:29:55;97754.25;;;0.88;100.00
18858;BME280;9558;50.178;8.370;2023-03-12T08:32:21;97756.13;;;0.85;100.00
18858;BME280;9558;50.178;8.370;2023-03-12T08:34:48;97743.25;;;0.87;100.00
18858;BME280;9558;50.178;8.370;2023-03-12T08:37:15;97733.56;;;0.81;100.00
18858;BME280;9558;50.178;8.370;2023-03-12T08:39:42;97741.34;;;0.79;100.00
18858;BME280;9558;50.178;8.370;2023-03-12T08:42:08;97734.38;;;0.81;100.00
18858;BME280;9558;50.178;8.370;2023-03-12T08:44:36;97733.44;;;0.82;100.00
18858;BME280;9558;50.178;8.370;2023-03-12T08:47:02;97734.81;;;0.86;100.00
18858;BME280;9558;50.178;8.370;2023-03-12T08:49:29;97729.84;;;0.85;100.00
18858;BME280;9558;50.178;8.370;2023-03-12T08:51:55;97734.38;;;0.81;100.00
18858;BME280;9558;50.178;8.370;2023-03-12T08:54:22;97731.94;;;0.80;100.00
18858;BME280;9558;50.178;8.370;2023-03-12T08:56:49;97734.38;;;0.81;100.00
18858;BME280;9558;50.178;8.370;2023-03-12T08:59:16;97736.00;;;0.82;100.00
18858;BME280;9558;50.178;8.370;2023-03-12T09:01:44;97730.88;;;0.82;100.00
18858;BME280;9558;50.178;8.370;2023-03-12T09:04:10;97724.31;;;0.80;100.00
18858;BME280;9558;50.178;8.370;2023-03-12T09:06:37;97736.00;;;0.82;100.00
18858;BME280;9558;50.178;8.370;2023-03-12T09:09:04;97738.00;;;0.79;100.00
18858;BME280;9558;50.178;8.370;2023-03-12T09:11:34;97734.63;;;0.78;100.00
18858;BME280;9558;50.178;8.370;2023-03-12T09:14:01;97739.72;;;0.78;100.00
18858;BME280;9558;50.178;8.370;2023-03-12T09:16:28;97739.97;;;0.75;100.00
18858;BME280;9558;50.178;8.370;2023-03-12T09:18:56;97738.91;;;0.78;100.00
18858;BME280;9558;50.178;8.370;2023-03-12T09:21:22;97725.25;;;0.79;100.00
18858;BME280;9558;50.178;8.370;2023-03-12T09:23:49;97727.34;;;0.74;100.00
18858;BME280;9558;50.178;8.370;2023-03-12T09:26:16;97724.00;;;0.73;100.00
18858;BME280;9558;50.178;8.370;2023-03-12T09:28:42;97730.03;;;0.72;100.00
18858;BME280;9558;50.178;8.370;2023-03-12T09:31:09;97723.31;;;0.71;100.00
18858;BME280;9558;50.178;8.370;2023-03-12T09:33:36;97733.50;;;0.71;100.00
18858;BME280;9558;50.178;8.370;2023-03-12T09:36:05;97736.50;;;0.76;100.00
18858;BME280;9558;50.178;8.370;2023-03-12T09:38:32;97744.13;;;0.76;100.00
18858;BME280;9558;50.178;8.370;2023-03-12T09:40:59;97747.81;;;0.83;100.00
18858;BME280;9558;50.178;8.370;2023-03-12T09:43:30;97747.81;;;0.83;100.00
18858;BME280;9558;50.178;8.370;2023-03-12T09:45:59;97741.06;;;0.82;100.00
18858;BME280;9558;50.178;8.370;2023-03-12T09:48:31;97736.50;;;0.76;100.00
18858;BME280;9558;50.178;8.370;2023-03-12T09:51:00;97737.41;;;0.75;100.00
18858;BME280;9558;50.178;8.370;2023-03-12T09:53:34;97745.06;;;0.75;100.00
18858;BME280;9558;50.178;8.370;2023-03-12T09:56:04;97746.69;;;0.76;100.00
18858;BME280;9558;50.178;8.370;2023-03-12T09:58:35;97741.59;;;0.76;100.00
18858;BME280;9558;50.178;8.370;2023-03-12T10:01:09;97744.81;;;0.78;100.00
18858;BME280;9558;50.178;8.370;2023-03-12T10:03:55;97746.44;;;0.79;100.00
18858;BME280;9558;50.178;8.370;2023-03-12T10:06:27;97744.56;;;0.81;100.00
18858;BME280;9558;50.178;8.370;2023-03-12T10:09:06;97751.97;;;0.84;100.00
18858;BME280;9558;50.178;8.370;2023-03-12T10:11:44;97760.94;;;0.89;100.00
18858;BME280;9558;50.178;8.370;2023-03-12T10:14:22;97754.00;;;0.91;100.00
18858;BME280;9558;50.178;8.370;2023-03-12T10:17:04;97760.72;;;0.92;100.00
18858;BME280;9558;50.178;8.370;2023-03-12T10:19:59;97757.09;;;0.94;100.00
18858;BME280;9558;50.178;8.370;2023-03-12T10:22:43;97757.00;;;0.96;100.00
18858;BME280;9558;50.178;8.370;2023-03-12T10:25:18;97755.38;;;0.95;100.00
18858;BME280;9558;50.178;8.370;2023-03-12T10:27:48;97750.03;;;0.98;100.00
18858;BME280;9558;50.178;8.370;2023-03-12T10:30:17;97753.38;;;0.98;100.00
18858;BME280;9558;50.178;8.370;2023-03-12T10:32:48;97749.78;;;1.01;100.00
18858;BME280;9558;50.178;8.370;2023-03-12T10:35:17;97744.44;;;1.04;100.00
18858;BME280;9558;50.178;8.370;2023-03-12T10:37:47;97742.06;;;1.12;100.00
18858;BME280;9558;50.178;8.370;2023-03-12T10:40:17;97748.28;;;1.19;100.00
18858;BME280;9558;50.178;8.370;2023-03-12T10:42:45;97737.81;;;1.23;100.00
18858;BME280;9558;50.178;8.370;2023-03-12T10:45:22;97727.38;;;1.26;100.00
18858;BME280;9558;50.178;8.370;2023-03-12T10:47:52;97726.63;;;1.35;100.00
18858;BME280;9558;50.178;8.370;2023-03-12T10:50:22;97732.16;;;1.40;100.00
18858;BME280;9558;50.178;8.370;2023-03-12T10:52:51;97730.72;;;1.47;100.00
18858;BME280;9558;50.178;8.370;2023-03-12T10:55:22;97726.00;;;1.52;100.00
18858;BME280;9558;50.178;8.370;2023-03-12T10:57:51;97728.88;;;1.59;100.00
18858;BME280;9558;50.178;8.370;2023-03-12T11:00:20;97726.72;;;1.64;100.00
18858;BME280;9558;50.178;8.370;2023-03-12T11:02:56;97743.81;;;1.73;100.00
18858;BME280;9558;50.178;8.370;2023-03-12T11:05:25;97734.69;;;1.81;100.00
18858;BME280;9558;50.178;8.370;2023-03-12T11:07:52;97741.56;;;1.90;100.00
18858;BME280;9558;50.178;8.370;2023-03-12T11:10:23;97740.13;;;1.97;100.00
18858;BME280;9558;50.178;8.370;2023-03-12T11:12:57;97727.13;;;2.10;100.00
18858;BME280;9558;50.178;8.370;2023-03-12T11:15:27;97736.78;;;2.16;100.00
18858;BME280;9558;50.178;8.370;2023-03-12T11:18:27;97739.22;;;2.28;100.00
18858;BME280;9558;50.178;8.370;2023-03-12T11:20:56;97748.91;;;2.34;100.00
18858;BME280;9558;50.178;8.370;2023-03-12T11:23:26;97749.59;;;2.36;100.00
18858;BME280;9558;50.178;8.370;2023-03-12T11:25:57;97747.84;;;2.46;100.00
18858;BME280;9558;50.178;8.370;2023-03-12T11:28:34;97746.38;;;2.63;100.00
18858;BME280;9558;50.178;8.370;2023-03-12T11:31:04;97745.13;;;2.77;100.00
18858;BME280;9558;50.178;8.370;2023-03-12T11:33:33;97747.69;;;2.87;100.00
18858;BME280;9558;50.178;8.370;2023-03-12T11:36:08;97748.59;;;2.96;100.00
18858;BME280;9558;50.178;8.370;2023-03-12T11:38:42;97751.84;;;2.98;100.00
18858;BME280;9558;50.178;8.370;2023-03-12T11:41:25;97746.84;;;3.06;100.00
18858;BME280;9558;50.178;8.370;2023-03-12T11:44:03;97746.31;;;3.02;100.00
18858;BME280;9558;50.178;8.370;2023-03-12T11:46:45;97751.84;;;2.98;100.00
18858;BME280;9558;50.178;8.370;2023-03-12T11:49:34;97745.22;;;3.05;100.00
18858;BME280;9558;50.178;8.370;2023-03-12T11:52:11;97749.41;;;3.06;100.00
18858;BME280;9558;50.178;8.370;2023-03-12T11:54:58;97740.09;;;3.15;100.00
18858;BME280;9558;50.178;8.370;2023-03-12T11:57:37;97754.09;;;3.20;100.00
18858;BME280;9558;50.178;8.370;2023-03-12T12:00:13;97739.41;;;3.22;100.00
18858;BME280;9558;50.178;8.370;2023-03-12T12:05:55;97741.03;;;3.23;100.00
18858;BME280;9558;50.178;8.370;2023-03-12T12:11:24;97731.72;;;3.32;100.00
18858;BME280;9558;50.178;8.370;2023-03-12T12:14:03;97723.59;;;3.37;100.00
18858;BME280;9558;50.178;8.370;2023-03-12T12:16:46;97715.38;;;3.43;100.00
18858;BME280;9558;50.178;8.370;2023-03-12T12:19:23;97719.66;;;3.52;100.00
18858;BME280;9558;50.178;8.370;2023-03-12T12:22:04;97709.94;;;3.56;100.00
18858;BME280;9558;50.178;8.370;2023-03-12T12:24:43;97705.47;;;3.58;100.00
18858;BME280;9558;50.178;8.370;2023-03-12T12:27:18;97708.28;;;3.65;100.00
18858;BME280;9558;50.178;8.370;2023-03-12T12:29:59;97707.41;;;3.74;100.00
18858;BME280;9558;50.178;8.370;2023-03-12T12:32:36;97700.41;;;3.76;100.00
18858;BME280;9558;50.178;8.370;2023-03-12T12:35:17;97690.09;;;3.86;100.00
18858;BME280;9558;50.178;8.370;2023-03-12T12:37:54;97692.25;;;3.90;100.00
18858;BME280;9558;50.178;8.370;2023-03-12T12:40:24;97697.16;;;4.02;100.00
18858;BME280;9558;50.178;8.370;2023-03-12T12:43:00;97698.53;;;4.14;100.00
18858;BME280;9558;50.178;8.370;2023-03-12T12:45:31;97699.94;;;4.26;100.00
18858;BME280;9558;50.178;8.370;2023-03-12T12:48:00;97692.63;;;4.31;100.00
18858;BME280;9558;50.178;8.370;2023-03-12T12:50:30;97694.81;;;4.44;100.00
18858;BME280;9558;50.178;8.370;2023-03-12T12:53:04;97694.72;;;4.54;100.00
18858;BME280;9558;50.178;8.370;2023-03-12T12:55:34;97695.16;;;4.67;100.00
18858;BME280;9558;50.178;8.370;2023-03-12T12:58:11;97698.59;;;4.76;100.00
18858;BME280;9558;50.178;8.370;2023-03-12T13:00:45;97703.63;;;4.86;100.00
18858;BME280;9558;50.178;8.370;2023-03-12T13:03:15;97700.09;;;4.87;100.00
18858;BME280;9558;50.178;8.370;2023-03-12T13:05:47;97692.75;;;4.92;100.00
18858;BME280;9558;50.178;8.370;2023-03-12T13:08:33;97691.84;;;5.01;100.00
18858;BME280;9558;50.178;8.370;2023-03-12T13:11:04;97685.59;;;5.04;100.00
18858;BME280;9558;50.178;8.370;2023-03-12T13:13:31;97690.16;;;5.10;100.00
18858;BME280;9558;50.178;8.370;2023-03-12T13:16:25;97678.81;;;5.21;100.00
18858;BME280;9558;50.178;8.370;2023-03-12T13:18:57;97679.16;;;5.26;100.00
18858;BME280;9558;50.178;8.370;2023-03-12T13:21:28;97683.97;;;5.29;100.00
18858;BME280;9558;50.178;8.370;2023-03-12T13:24:08;97671.50;;;5.34;100.00
18858;BME280;9558;50.178;8.370;2023-03-12T13:26:49;97676.31;;;5.38;100.00
18858;BME280;9558;50.178;8.370;2023-03-12T13:29:22;97674.72;;;5.36;100.00